sensor_id;sensor_type;location;lat;lon;timestamp;pressure;altitude;pressure_sealevel;temperature;humidity
47763;BME280;33526;42.690;23.322;2023-07-02T00:00:07;94339.34;;;17.49;100.00
47763;BME280;33526;42.690;23.322;2023-07-02T00:02:37;94452.53;;;18.25;100.00
47763;BME280;33526;42.690;23.322;2023-07-02T00:05:04;94337.13;;;17.42;100.00
47763;BME280;33526;42.690;23.322;2023-07-02T00:07:32;94396.31;;;17.78;100.00
47763;BME280;33526;42.690;23.322;2023-07-02T00:10:06;94393.47;;;17.78;100.00
47763;BME280;33526;42.690;23.322;2023-07-02T00:12:33;94464.78;;;18.33;100.00
47763;BME280;33526;42.690;23.322;2023-07-02T00:15:00;94463.63;;;18.23;100.00
47763;BME280;33526;42.690;23.322;2023-07-02T00:17:39;94454.59;;;18.25;100.00
47763;BME280;33526;42.690;23.322;2023-07-02T00:20:14;94377.78;;;17.77;100.00
47763;BME280;33526;42.690;23.322;2023-07-02T00:22:48;94338.53;;;17.54;100.00
47763;BME280;33526;42.690;23.322;2023-07-02T00:25:28;94365.13;;;17.84;100.00
47763;BME280;33526;42.690;23.322;2023-07-02T00:27:59;94335.31;;;17.64;100.00
47763;BME280;33526;42.690;23.322;2023-07-02T00:30:53;94473.56;;;18.49;100.00
47763;BME280;33526;42.690;23.322;2023-07-02T00:33:22;94391.91;;;18.02;100.00
47763;BME280;33526;42.690;23.322;2023-07-02T00:35:51;94393.06;;;18.12;100.00
47763;BME280;33526;42.690;23.322;2023-07-02T00:38:17;94341.59;;;17.75;100.00
47763;BME280;33526;42.690;23.322;2023-07-02T00:40:44;94402.84;;;18.11;100.00
47763;BME280;33526;42.690;23.322;2023-07-02T00:43:11;94426.63;;;18.21;100.00
47763;BME280;33526;42.690;23.322;2023-07-02T00:45:40;94447.88;;;18.28;100.00
47763;BME280;33526;42.690;23.322;2023-07-02T00:48:10;94440.09;;;18.15;100.00
47763;BME280;33526;42.690;23.322;2023-07-02T00:50:36;94496.38;;;18.57;100.00
47763;BME280;33526;42.690;23.322;2023-07-02T00:53:03;94490.31;;;18.66;100.00
47763;BME280;33526;42.690;23.322;2023-07-02T00:55:54;94470.66;;;18.54;100.00
47763;BME280;33526;42.690;23.322;2023-07-02T00:58:25;94386.25;;;18.02;100.00
47763;BME280;33526;42.690;23.322;2023-07-02T01:01:27;94389.78;;;17.89;100.00
47763;BME280;33526;42.690;23.322;2023-07-02T01:04:07;94352.75;;;17.68;100.00
47763;BME280;33526;42.690;23.322;2023-07-02T01:06:42;94473.03;;;18.31;100.00
47763;BME280;33526;42.690;23.322;2023-07-02T01:09:18;94383.28;;;17.50;100.00
47763;BME280;33526;42.690;23.322;2023-07-02T01:12:10;94471.84;;;18.02;100.00
47763;BME280;33526;42.690;23.322;2023-07-02T01:14:49;94439.91;;;18.07;100.00
47763;BME280;33526;42.690;23.322;2023-07-02T01:17:25;94403.94;;;17.83;100.00
47763;BME280;33526;42.690;23.322;2023-07-02T01:19:55;94431.03;;;17.98;100.00
47763;BME280;33526;42.690;23.322;2023-07-02T01:22:30;94369.50;;;17.41;100.00
47763;BME280;33526;42.690;23.322;2023-07-02T01:25:12;94396.22;;;17.65;100.00
47763;BME280;33526;42.690;23.322;2023-07-02T01:30:40;94468.38;;;18.15;100.00
47763;BME280;33526;42.690;23.322;2023-07-02T01:33:17;94385.81;;;17.73;100.00
47763;BME280;33526;42.690;23.322;2023-07-02T01:35:49;94438.31;;;18.31;100.00
47763;BME280;33526;42.690;23.322;2023-07-02T01:38:23;94403.59;;;17.92;100.00
47763;BME280;33526;42.690;23.322;2023-07-02T01:40:56;94443.97;;;18.31;100.00
47763;BME280;33526;42.690;23.322;2023-07-02T01:43:24;94368.47;;;17.82;100.00
47763;BME280;33526;42.690;23.322;2023-07-02T01:45:59;94408.25;;;18.09;100.00
47763;BME280;33526;42.690;23.322;2023-07-02T01:48:36;94432.44;;;18.10;100.00
47763;BME280;33526;42.690;23.322;2023-07-02T01:51:23;94335.59;;;17.41;100.00
47763;BME280;33526;42.690;23.322;2023-07-02T01:53:50;94435.03;;;18.08;100.00
47763;BME280;33526;42.690;23.322;2023-07-02T01:56:19;94434.81;;;17.81;100.00
47763;BME280;33526;42.690;23.322;2023-07-02T01:59:09;94452.38;;;17.74;100.00
47763;BME280;33526;42.690;23.322;2023-07-02T02:01:38;94337.06;;;17.04;100.00
47763;BME280;33526;42.690;23.322;2023-07-02T02:06:41;94383.88;;;17.43;100.00
47763;BME280;33526;42.690;23.322;2023-07-02T02:09:13;94367.53;;;17.36;100.00
47763;BME280;33526;42.690;23.322;2023-07-02T02:11:49;94419.22;;;17.74;100.00
47763;BME280;33526;42.690;23.322;2023-07-02T02:14:21;94306.75;;;16.80;100.00
47763;BME280;33526;42.690;23.322;2023-07-02T02:16:55;94399.00;;;17.46;100.00
47763;BME280;33526;42.690;23.322;2023-07-02T02:19:40;94326.03;;;17.00;100.00
47763;BME280;33526;42.690;23.322;2023-07-02T02:22:36;94423.47;;;17.62;100.00
47763;BME280;33526;42.690;23.322;2023-07-02T02:25:06;94398.00;;;17.43;100.00
47763;BME280;33526;42.690;23.322;2023-07-02T02:27:33;94312.81;;;16.59;100.00
47763;BME280;33526;42.690;23.322;2023-07-02T02:30:00;94299.56;;;16.49;100.00
47763;BME280;33526;42.690;23.322;2023-07-02T02:32:27;94409.59;;;17.15;100.00
47763;BME280;33526;42.690;23.322;2023-07-02T02:37:38;94394.78;;;17.09;100.00
47763;BME280;33526;42.690;23.322;2023-07-02T02:40:10;94342.66;;;16.79;100.00
47763;BME280;33526;42.690;23.322;2023-07-02T02:42:38;94295.38;;;16.61;100.00
47763;BME280;33526;42.690;23.322;2023-07-02T02:45:15;94336.81;;;17.02;100.00
47763;BME280;33526;42.690;23.322;2023-07-02T02:47:55;94406.50;;;17.62;100.00
47763;BME280;33526;42.690;23.322;2023-07-02T02:50:31;94419.06;;;17.67;100.00
47763;BME280;33526;42.690;23.322;2023-07-02T02:55:34;94360.94;;;17.28;100.00
47763;BME280;33526;42.690;23.322;2023-07-02T02:58:14;94424.56;;;17.78;100.00
47763;BME280;33526;42.690;23.322;2023-07-02T03:01:18;94335.41;;;17.14;100.00
47763;BME280;33526;42.690;23.322;2023-07-02T03:04:13;94333.28;;;17.20;100.00
47763;BME280;33526;42.690;23.322;2023-07-02T03:06:53;94349.91;;;17.49;100.00
47763;BME280;33526;42.690;23.322;2023-07-02T03:09:20;94442.50;;;17.86;100.00
47763;BME280;33526;42.690;23.322;2023-07-02T03:11:48;94290.91;;;16.96;100.00
47763;BME280;33526;42.690;23.322;2023-07-02T03:14:30;94377.94;;;17.66;100.00
47763;BME280;33526;42.690;23.322;2023-07-02T03:17:07;94434.72;;;18.11;100.00
47763;BME280;33526;42.690;23.322;2023-07-02T03:19:33;94300.19;;;17.40;100.00
47763;BME280;33526;42.690;23.322;2023-07-02T03:21:59;94361.31;;;17.81;100.00
47763;BME280;33526;42.690;23.322;2023-07-02T03:24:36;94311.19;;;17.44;100.00
47763;BME280;33526;42.690;23.322;2023-07-02T03:27:16;94353.44;;;17.74;100.00
47763;BME280;33526;42.690;23.322;2023-07-02T03:29:55;94464.38;;;18.43;100.00
47763;BME280;33526;42.690;23.322;2023-07-02T03:32:25;94366.50;;;17.77;100.00
47763;BME280;33526;42.690;23.322;2023-07-02T03:34:52;94328.31;;;17.70;100.00
47763;BME280;33526;42.690;23.322;2023-07-02T03:37:29;94464.38;;;18.62;100.00
47763;BME280;33526;42.690;23.322;2023-07-02T06:44:09;94511.00;;;21.33;81.33
47763;BME280;33526;42.690;23.322;2023-07-02T06:47:41;94469.94;;;21.21;79.46
47763;BME280;33526;42.690;23.322;2023-07-02T06:50:47;94430.03;;;21.06;78.04
47763;BME280;33526;42.690;23.322;2023-07-02T06:57:21;94497.44;;;21.89;74.76
47763;BME280;33526;42.690;23.322;2023-07-02T07:00:14;94510.50;;;22.13;74.40
47763;BME280;33526;42.690;23.322;2023-07-02T07:02:40;94493.34;;;21.98;75.41
47763;BME280;33526;42.690;23.322;2023-07-02T07:05:05;94517.00;;;22.50;74.93
47763;BME280;33526;42.690;23.322;2023-07-02T07:07:31;94517.41;;;22.55;72.97
47763;BME280;33526;42.690;23.322;2023-07-02T07:09:57;94460.56;;;22.41;71.41
47763;BME280;33526;42.690;23.322;2023-07-02T07:12:39;94441.19;;;22.32;70.72
47763;BME280;33526;42.690;23.322;2023-07-02T07:15:14;94411.34;;;21.89;70.94
47763;BME280;33526;42.690;23.322;2023-07-02T07:17:39;94455.94;;;21.94;72.60
47763;BME280;33526;42.690;23.322;2023-07-02T07:20:07;94411.56;;;21.62;73.12
47763;BME280;33526;42.690;23.322;2023-07-02T07:35:40;94429.22;;;21.97;73.15
47763;BME280;33526;42.690;23.322;2023-07-02T07:38:06;94391.34;;;21.73;73.52
47763;BME280;33526;42.690;23.322;2023-07-02T07:40:33;94474.75;;;21.97;74.09
47763;BME280;33526;42.690;23.322;2023-07-02T07:42:59;94488.78;;;21.95;74.74
47763;BME280;33526;42.690;23.322;2023-07-02T07:45:24;94469.97;;;21.92;74.47
47763;BME280;33526;42.690;23.322;2023-07-02T07:47:49;94482.63;;;21.83;76.04
47763;BME280;33526;42.690;23.322;2023-07-02T07:50:15;94467.00;;;22.05;74.76
47763;BME280;33526;42.690;23.322;2023-07-02T07:52:42;94495.50;;;22.42;73.83
47763;BME280;33526;42.690;23.322;2023-07-02T07:55:08;94488.97;;;22.70;70.67
47763;BME280;33526;42.690;23.322;2023-07-02T07:57:36;94503.69;;;22.97;70.57
47763;BME280;33526;42.690;23.322;2023-07-02T08:00:15;94498.91;;;22.92;70.00
47763;BME280;33526;42.690;23.322;2023-07-02T08:03:32;94507.97;;;23.19;69.60
47763;BME280;33526;42.690;23.322;2023-07-02T08:06:55;94451.19;;;22.62;69.17
47763;BME280;33526;42.690;23.322;2023-07-02T08:13:22;94440.28;;;22.08;71.82
47763;BME280;33526;42.690;23.322;2023-07-02T08:19:17;94397.94;;;22.49;69.34
47763;BME280;33526;42.690;23.322;2023-07-02T08:21:58;94500.34;;;23.14;69.40
47763;BME280;33526;42.690;23.322;2023-07-02T08:24:28;94359.59;;;22.42;69.25
47763;BME280;33526;42.690;23.322;2023-07-02T08:27:24;94414.81;;;23.06;68.55
47763;BME280;33526;42.690;23.322;2023-07-02T08:39:04;94499.94;;;24.41;62.47
47763;BME280;33526;42.690;23.322;2023-07-02T08:50:47;94496.22;;;23.92;63.61
47763;BME280;33526;42.690;23.322;2023-07-02T08:53:23;94421.47;;;23.71;63.45
47763;BME280;33526;42.690;23.322;2023-07-02T08:56:33;94486.47;;;24.26;62.57
47763;BME280;33526;42.690;23.322;2023-07-02T08:59:21;94419.56;;;23.42;62.83
47763;BME280;33526;42.690;23.322;2023-07-02T09:08:28;94380.56;;;23.60;62.38
47763;BME280;33526;42.690;23.322;2023-07-02T09:14:44;94374.91;;;24.24;59.84
47763;BME280;33526;42.690;23.322;2023-07-02T09:18:02;94466.00;;;25.34;58.58
47763;BME280;33526;42.690;23.322;2023-07-02T09:23:44;94412.41;;;24.76;57.53
47763;BME280;33526;42.690;23.322;2023-07-02T09:26:38;94440.19;;;24.84;57.58
47763;BME280;33526;42.690;23.322;2023-07-02T09:30:17;94364.50;;;24.52;56.56
47763;BME280;33526;42.690;23.322;2023-07-02T09:36:13;94345.00;;;24.25;57.03
47763;BME280;33526;42.690;23.322;2023-07-02T09:39:33;94456.16;;;25.19;56.15
47763;BME280;33526;42.690;23.322;2023-07-02T09:42:27;94450.44;;;25.19;55.72
47763;BME280;33526;42.690;23.322;2023-07-02T09:45:28;94421.31;;;24.80;55.96
47763;BME280;33526;42.690;23.322;2023-07-02T09:48:31;94461.84;;;25.27;54.84
47763;BME280;33526;42.690;23.322;2023-07-02T09:51:13;94459.66;;;25.43;55.35
47763;BME280;33526;42.690;23.322;2023-07-02T09:54:05;94423.50;;;25.23;55.36
47763;BME280;33526;42.690;23.322;2023-07-02T09:56:56;94415.25;;;25.60;55.03
47763;BME280;33526;42.690;23.322;2023-07-02T09:59:35;94338.13;;;25.44;54.19
47763;BME280;33526;42.690;23.322;2023-07-02T10:02:09;94388.88;;;26.21;53.21
47763;BME280;33526;42.690;23.322;2023-07-02T10:05:00;94348.81;;;26.04;51.64
47763;BME280;33526;42.690;23.322;2023-07-02T10:08:17;94454.84;;;26.13;51.81
47763;BME280;33526;42.690;23.322;2023-07-02T10:11:14;94356.81;;;24.95;54.26
47763;BME280;33526;42.690;23.322;2023-07-02T10:14:15;94442.13;;;25.64;55.45
47763;BME280;33526;42.690;23.322;2023-07-02T10:16:57;94375.28;;;25.27;55.93
47763;BME280;33526;42.690;23.322;2023-07-02T10:23:33;94421.97;;;25.54;55.24
47763;BME280;33526;42.690;23.322;2023-07-02T10:26:28;94300.22;;;24.68;54.63
47763;BME280;33526;42.690;23.322;2023-07-02T10:29:02;94351.22;;;25.05;54.36
47763;BME280;33526;42.690;23.322;2023-07-02T10:32:14;94297.53;;;24.70;53.38
47763;BME280;33526;42.690;23.322;2023-07-02T10:35:18;94408.00;;;25.59;53.17
47763;BME280;33526;42.690;23.322;2023-07-02T10:37:48;94330.34;;;25.19;52.54
47763;BME280;33526;42.690;23.322;2023-07-02T10:40:58;94414.00;;;25.96;50.52
47763;BME280;33526;42.690;23.322;2023-07-02T10:43:37;94417.28;;;26.27;49.97
47763;BME280;33526;42.690;23.322;2023-07-02T10:46:25;94347.25;;;25.85;49.33
47763;BME280;33526;42.690;23.322;2023-07-02T10:48:58;94302.97;;;25.69;49.24
47763;BME280;33526;42.690;23.322;2023-07-02T10:57:29;94366.34;;;27.34;46.29
47763;BME280;33526;42.690;23.322;2023-07-02T11:00:22;94380.00;;;27.53;46.34
47763;BME280;33526;42.690;23.322;2023-07-02T11:02:53;94398.50;;;27.79;45.80
47763;BME280;33526;42.690;23.322;2023-07-02T11:05:45;94325.19;;;27.22;46.32
47763;BME280;33526;42.690;23.322;2023-07-02T11:08:16;94337.56;;;26.78;47.20
47763;BME280;33526;42.690;23.322;2023-07-02T11:10:46;94307.44;;;26.15;47.34
47763;BME280;33526;42.690;23.322;2023-07-02T11:13:44;94391.88;;;27.40;45.31
47763;BME280;33526;42.690;23.322;2023-07-02T11:19:25;94388.72;;;28.21;42.39
47763;BME280;33526;42.690;23.322;2023-07-02T11:22:39;94395.41;;;28.24;41.77
47763;BME280;33526;42.690;23.322;2023-07-02T11:25:41;94292.72;;;27.66;41.32
47763;BME280;33526;42.690;23.322;2023-07-02T11:28:19;94325.44;;;27.34;41.86
47763;BME280;33526;42.690;23.322;2023-07-02T11:30:57;94293.63;;;25.51;48.26
47763;BME280;33526;42.690;23.322;2023-07-02T11:36:24;94322.03;;;24.56;56.37
47763;BME280;33526;42.690;23.322;2023-07-02T11:38:57;94416.94;;;25.12;57.20
47763;BME280;33526;42.690;23.322;2023-07-02T11:41:39;94414.19;;;24.64;59.21
47763;BME280;33526;42.690;23.322;2023-07-02T11:44:26;94423.03;;;24.35;60.54
47763;BME280;33526;42.690;23.322;2023-07-02T11:46:57;94413.72;;;24.75;59.16
47763;BME280;33526;42.690;23.322;2023-07-02T11:50:04;94311.16;;;24.21;58.85
47763;BME280;33526;42.690;23.322;2023-07-02T11:53:20;94384.66;;;25.70;54.84
47763;BME280;33526;42.690;23.322;2023-07-02T11:55:59;94383.13;;;25.86;53.85
47763;BME280;33526;42.690;23.322;2023-07-02T11:58:32;94414.28;;;26.52;51.72
47763;BME280;33526;42.690;23.322;2023-07-02T12:01:32;94296.50;;;25.51;48.22
47763;BME280;33526;42.690;23.322;2023-07-02T12:03:59;94294.88;;;24.72;47.76
47763;BME280;33526;42.690;23.322;2023-07-02T12:06:31;94351.41;;;25.32;48.40
47763;BME280;33526;42.690;23.322;2023-07-02T12:09:13;94404.84;;;25.72;48.22
47763;BME280;33526;42.690;23.322;2023-07-02T12:11:43;94434.13;;;25.80;49.24
47763;BME280;33526;42.690;23.322;2023-07-02T12:15:05;94429.38;;;24.74;52.47
47763;BME280;33526;42.690;23.322;2023-07-02T12:18:02;94435.09;;;24.74;54.45
47763;BME280;33526;42.690;23.322;2023-07-02T12:23:37;94435.59;;;25.13;56.12
47763;BME280;33526;42.690;23.322;2023-07-02T12:26:09;94441.25;;;25.29;54.75
47763;BME280;33526;42.690;23.322;2023-07-02T12:28:48;94374.31;;;24.99;58.40
47763;BME280;33526;42.690;23.322;2023-07-02T12:31:16;94410.31;;;25.35;60.43
47763;BME280;33526;42.690;23.322;2023-07-02T12:33:48;94358.19;;;24.94;61.70
47763;BME280;33526;42.690;23.322;2023-07-02T12:36:41;94313.19;;;24.36;66.53
47763;BME280;33526;42.690;23.322;2023-07-02T12:39:10;94334.91;;;24.72;64.32
47763;BME280;33526;42.690;23.322;2023-07-02T12:41:41;94433.28;;;25.70;65.84
47763;BME280;33526;42.690;23.322;2023-07-02T12:44:40;94348.34;;;25.05;61.59
47763;BME280;33526;42.690;23.322;2023-07-02T12:48:31;94321.03;;;25.11;62.97
47763;BME280;33526;42.690;23.322;2023-07-02T12:53:35;94356.03;;;25.70;59.97
47763;BME280;33526;42.690;23.322;2023-07-02T12:56:14;94428.53;;;25.90;60.17
47763;BME280;33526;42.690;23.322;2023-07-02T12:58:48;94403.13;;;26.11;58.55
47763;BME280;33526;42.690;23.322;2023-07-02T13:01:15;94421.75;;;26.20;56.86
47763;BME280;33526;42.690;23.322;2023-07-02T13:03:49;94383.56;;;25.83;57.46
47763;BME280;33526;42.690;23.322;2023-07-02T13:07:07;94423.25;;;26.21;55.33
47763;BME280;33526;42.690;23.322;2023-07-02T13:09:44;94362.50;;;25.70;54.68
47763;BME280;33526;42.690;23.322;2023-07-02T13:12:14;94347.03;;;25.31;55.00
47763;BME280;33526;42.690;23.322;2023-07-02T13:15:04;94398.16;;;26.12;54.33
47763;BME280;33526;42.690;23.322;2023-07-02T13:18:22;94300.28;;;25.53;50.36
47763;BME280;33526;42.690;23.322;2023-07-02T13:24:58;94299.78;;;25.65;51.48
47763;BME280;33526;42.690;23.322;2023-07-02T13:27:46;94264.03;;;25.13;53.58
47763;BME280;33526;42.690;23.322;2023-07-02T13:39:50;94281.13;;;24.46;57.45
47763;BME280;33526;42.690;23.322;2023-07-02T13:42:46;94372.66;;;25.21;58.50
47763;BME280;33526;42.690;23.322;2023-07-02T13:48:46;94382.28;;;25.33;58.13
47763;BME280;33526;42.690;23.322;2023-07-02T13:54:41;94394.69;;;24.70;60.70
47763;BME280;33526;42.690;23.322;2023-07-02T13:57:37;94393.25;;;24.54;62.38
47763;BME280;33526;42.690;23.322;2023-07-02T14:00:24;94285.91;;;23.54;62.46
47763;BME280;33526;42.690;23.322;2023-07-02T14:03:03;94328.38;;;24.06;62.72
47763;BME280;33526;42.690;23.322;2023-07-02T14:05:59;94294.63;;;23.56;62.44
47763;BME280;33526;42.690;23.322;2023-07-02T14:08:32;94411.25;;;24.23;62.80
47763;BME280;33526;42.690;23.322;2023-07-02T14:11:03;94347.88;;;23.61;63.21
47763;BME280;33526;42.690;23.322;2023-07-02T14:13:46;94286.34;;;23.20;63.92
47763;BME280;33526;42.690;23.322;2023-07-02T14:16:22;94354.91;;;23.60;65.45
47763;BME280;33526;42.690;23.322;2023-07-02T14:19:20;94283.13;;;23.23;64.29
47763;BME280;33526;42.690;23.322;2023-07-02T14:22:27;94410.00;;;24.01;64.13
47763;BME280;33526;42.690;23.322;2023-07-02T14:24:58;94403.59;;;23.70;65.02
47763;BME280;33526;42.690;23.322;2023-07-02T14:37:54;94329.66;;;23.03;70.14
47763;BME280;33526;42.690;23.322;2023-07-02T14:40:55;94346.38;;;22.99;68.01
47763;BME280;33526;42.690;23.322;2023-07-02T14:44:09;94413.13;;;23.34;65.08
47763;BME280;33526;42.690;23.322;2023-07-02T14:46:38;94421.69;;;23.34;65.35
47763;BME280;33526;42.690;23.322;2023-07-02T14:54:26;94424.34;;;23.32;66.67
47763;BME280;33526;42.690;23.322;2023-07-02T14:57:50;94410.63;;;23.61;66.16
47763;BME280;33526;42.690;23.322;2023-07-02T15:35:21;94385.19;;;25.00;56.84
47763;BME280;33526;42.690;23.322;2023-07-02T15:38:33;94421.84;;;25.19;54.53
47763;BME280;33526;42.690;23.322;2023-07-02T15:41:19;94416.94;;;25.12;54.51
47763;BME280;33526;42.690;23.322;2023-07-02T16:56:28;94373.19;;;26.40;51.20
47763;BME280;33526;42.690;23.322;2023-07-02T17:02:23;94439.94;;;26.15;53.40
47763;BME280;33526;42.690;23.322;2023-07-02T17:05:24;94415.28;;;25.34;56.22
47763;BME280;33526;42.690;23.322;2023-07-02T17:08:12;94389.34;;;24.74;58.30
47763;BME280;33526;42.690;23.322;2023-07-02T17:11:06;94354.94;;;24.24;59.99
47763;BME280;33526;42.690;23.322;2023-07-02T17:17:05;94390.38;;;24.05;62.66
47763;BME280;33526;42.690;23.322;2023-07-02T17:20:02;94493.44;;;24.56;63.30
47763;BME280;33526;42.690;23.322;2023-07-02T17:23:22;94382.28;;;23.63;64.25
47763;BME280;33526;42.690;23.322;2023-07-02T17:26:26;94379.25;;;23.46;63.79
47763;BME280;33526;42.690;23.322;2023-07-02T17:29:06;94484.81;;;24.08;64.53
47763;BME280;33526;42.690;23.322;2023-07-02T17:32:01;94486.91;;;23.99;64.16
47763;BME280;33526;42.690;23.322;2023-07-02T17:38:46;94510.31;;;23.90;65.55
47763;BME280;33526;42.690;23.322;2023-07-02T17:41:12;94517.13;;;23.79;65.10
47763;BME280;33526;42.690;23.322;2023-07-02T17:43:38;94501.91;;;23.61;65.52
47763;BME280;33526;42.690;23.322;2023-07-02T17:46:03;94520.19;;;23.74;65.74
47763;BME280;33526;42.690;23.322;2023-07-02T17:48:30;94536.16;;;23.77;66.45
47763;BME280;33526;42.690;23.322;2023-07-02T17:50:56;94535.78;;;23.73;67.27
47763;BME280;33526;42.690;23.322;2023-07-02T17:53:24;94512.38;;;23.51;68.27
47763;BME280;33526;42.690;23.322;2023-07-02T17:55:52;94527.41;;;23.52;69.32
47763;BME280;33526;42.690;23.322;2023-07-02T17:58:18;94535.22;;;23.59;70.50
47763;BME280;33526;42.690;23.322;2023-07-02T18:00:43;94544.91;;;23.48;71.56
47763;BME280;33526;42.690;23.322;2023-07-02T18:03:09;94539.19;;;23.48;72.00
47763;BME280;33526;42.690;23.322;2023-07-02T18:05:34;94497.69;;;23.08;72.79
47763;BME280;33526;42.690;23.322;2023-07-02T18:11:32;94546.34;;;23.18;73.91
47763;BME280;33526;42.690;23.322;2023-07-02T18:14:30;94560.75;;;23.05;74.74
47763;BME280;33526;42.690;23.322;2023-07-02T18:17:16;94566.38;;;22.97;74.25
47763;BME280;33526;42.690;23.322;2023-07-02T18:19:49;94560.28;;;22.85;73.79
47763;BME280;33526;42.690;23.322;2023-07-02T18:23:12;94569.13;;;22.74;75.11
47763;BME280;33526;42.690;23.322;2023-07-02T18:25:41;94560.75;;;22.68;75.30
47763;BME280;33526;42.690;23.322;2023-07-02T18:28:14;94571.59;;;22.70;75.93
47763;BME280;33526;42.690;23.322;2023-07-02T18:31:05;94587.13;;;22.61;76.21
47763;BME280;33526;42.690;23.322;2023-07-02T18:33:55;94580.28;;;22.57;75.96
47763;BME280;33526;42.690;23.322;2023-07-02T18:37:10;94579.25;;;22.46;76.29
47763;BME280;33526;42.690;23.322;2023-07-02T18:40:12;94584.38;;;22.48;77.03
47763;BME280;33526;42.690;23.322;2023-07-02T18:42:48;94587.19;;;22.40;77.51
47763;BME280;33526;42.690;23.322;2023-07-02T18:45:30;94597.81;;;22.40;77.77
47763;BME280;33526;42.690;23.322;2023-07-02T18:48:02;94602.16;;;22.33;78.03
47763;BME280;33526;42.690;23.322;2023-07-02T18:50:42;94602.63;;;22.24;78.56
47763;BME280;33526;42.690;23.322;2023-07-02T18:53:31;94613.78;;;22.22;78.29
47763;BME280;33526;42.690;23.322;2023-07-02T18:56:01;94610.13;;;22.13;78.91
47763;BME280;33526;42.690;23.322;2023-07-02T18:58:59;94592.72;;;21.96;78.76
47763;BME280;33526;42.690;23.322;2023-07-02T19:01:32;94622.63;;;22.10;78.26
47763;BME280;33526;42.690;23.322;2023-07-02T19:04:00;94618.81;;;22.08;78.07
47763;BME280;33526;42.690;23.322;2023-07-02T19:06:35;94616.13;;;22.02;77.71
47763;BME280;33526;42.690;23.322;2023-07-02T19:09:14;94612.72;;;21.83;77.82
47763;BME280;33526;42.690;23.322;2023-07-02T19:11:55;94613.69;;;21.85;78.14
47763;BME280;33526;42.690;23.322;2023-07-02T19:14:24;94627.56;;;21.89;78.18
47763;BME280;33526;42.690;23.322;2023-07-02T19:16:54;94614.88;;;21.69;78.84
47763;BME280;33526;42.690;23.322;2023-07-02T19:19:26;94634.16;;;21.84;78.19
47763;BME280;33526;42.690;23.322;2023-07-02T19:22:05;94639.78;;;21.76;78.65
47763;BME280;33526;42.690;23.322;2023-07-02T19:24:51;94652.81;;;21.71;78.90
47763;BME280;33526;42.690;23.322;2023-07-02T19:28:08;94648.50;;;21.57;79.12
47763;BME280;33526;42.690;23.322;2023-07-02T19:30:42;94649.69;;;21.62;79.29
47763;BME280;33526;42.690;23.322;2023-07-02T19:33:15;94670.16;;;21.60;79.17
47763;BME280;33526;42.690;23.322;2023-07-02T19:36:10;94659.88;;;21.57;78.63
47763;BME280;33526;42.690;23.322;2023-07-02T19:39:02;94664.03;;;21.43;79.61
47763;BME280;33526;42.690;23.322;2023-07-02T19:41:49;94665.59;;;21.44;79.55
47763;BME280;33526;42.690;23.322;2023-07-02T19:44:30;94671.81;;;21.42;79.34
47763;BME280;33526;42.690;23.322;2023-07-02T19:47:11;94674.78;;;21.36;79.88
47763;BME280;33526;42.690;23.322;2023-07-02T19:50:07;94674.38;;;21.32;79.95
47763;BME280;33526;42.690;23.322;2023-07-02T19:53:10;94656.38;;;21.16;80.31
47763;BME280;33526;42.690;23.322;2023-07-02T19:56:51;94677.78;;;21.17;80.91
47763;BME280;33526;42.690;23.322;2023-07-02T19:59:45;94672.00;;;21.10;81.97
47763;BME280;33526;42.690;23.322;2023-07-02T20:02:43;94670.03;;;21.05;81.46
47763;BME280;33526;42.690;23.322;2023-07-02T20:05:19;94673.88;;;21.07;82.44
47763;BME280;33526;42.690;23.322;2023-07-02T20:07:47;94667.97;;;21.05;81.92
47763;BME280;33526;42.690;23.322;2023-07-02T20:10:20;94649.88;;;20.81;82.37
47763;BME280;33526;42.690;23.322;2023-07-02T20:12:51;94668.31;;;20.88;82.42
47763;BME280;33526;42.690;23.322;2023-07-02T20:15:29;94678.78;;;20.93;82.75
47763;BME280;33526;42.690;23.322;2023-07-02T20:17:57;94679.66;;;20.88;82.77
47763;BME280;33526;42.690;23.322;2023-07-02T20:20:43;94686.22;;;20.83;82.87
47763;BME280;33526;42.690;23.322;2023-07-02T20:23:10;94681.88;;;20.82;82.89
47763;BME280;33526;42.690;23.322;2023-07-02T20:25:40;94684.28;;;20.78;83.20
47763;BME280;33526;42.690;23.322;2023-07-02T20:28:07;94653.66;;;20.57;82.89
47763;BME280;33526;42.690;23.322;2023-07-02T20:30:45;94675.31;;;20.74;83.28
47763;BME280;33526;42.690;23.322;2023-07-02T20:33:16;94628.44;;;20.40;83.27
47763;BME280;33526;42.690;23.322;2023-07-02T20:36:04;94666.88;;;20.55;84.20
47763;BME280;33526;42.690;23.322;2023-07-02T20:38:38;94692.78;;;20.65;83.95
47763;BME280;33526;42.690;23.322;2023-07-02T20:41:13;94687.66;;;20.63;84.45
47763;BME280;33526;42.690;23.322;2023-07-02T20:44:00;94680.97;;;20.60;84.76
47763;BME280;33526;42.690;23.322;2023-07-02T20:46:42;94693.41;;;20.57;84.68
47763;BME280;33526;42.690;23.322;2023-07-02T20:49:17;94690.78;;;20.59;84.72
47763;BME280;33526;42.690;23.322;2023-07-02T20:52:06;94681.63;;;20.53;85.07
47763;BME280;33526;42.690;23.322;2023-07-02T20:54:34;94662.41;;;20.46;85.06
47763;BME280;33526;42.690;23.322;2023-07-02T20:57:01;94667.41;;;20.40;85.16
47763;BME280;33526;42.690;23.322;2023-07-02T20:59:27;94674.06;;;20.42;85.91
47763;BME280;33526;42.690;23.322;2023-07-02T21:01:52;94689.91;;;20.51;85.89
47763;BME280;33526;42.690;23.322;2023-07-02T21:04:21;94697.56;;;20.56;85.59
47763;BME280;33526;42.690;23.322;2023-07-02T21:06:50;94677.03;;;20.37;85.89
47763;BME280;33526;42.690;23.322;2023-07-02T21:09:15;94713.06;;;20.55;85.90
47763;BME280;33526;42.690;23.322;2023-07-02T21:11:49;94706.97;;;20.51;86.61